7XS9 weather

Pearce Industries Heliport
Houston, Texas, United States

Public forecast

Using degrees Fahrenheit for public forecast. Weather courtesy of forecast.io.

Closest aviation weather report (METAR) to Pearce Industries Heliport

Closest report is Houston Southwest Airport, 8.7 nm (16.1 km) S. Retrieved 2020/08/06 00:35 UTC (0 seconds ago):

KAXH 060035Z AUTO 19003KT 10SM CLR 30/22 A2995 RMK AO2 T02960220

Closest aviation forecast (TAF) to Pearce Industries Heliport

Closest forecast is William P Hobby Airport, 9.5 nm (17.6 km) E. Retrieved 2020-08-06 00:42 UTC (0 seconds ago):

TAF KHOU 052340Z 0600/0624 19012KT P6SM SCT040 FM060100 16004KT P6SM FEW250 FM061500 20006KT P6SM FEW035 SCT070 FM062000 16006KT P6SM VCTS SCT040CB BKN070